Time;durP1;ratioP1;P1;durP2;ratioP2;P2;SDS_P1;SDS_P2;PMS_P1;PMS_P2;Temp;Humidity;BMP_temperature;BMP_pressure;BME280_temperature;BME280_humidity;BME280_pressure;Samples;Min_cycle;Max_cycle;Signal;HPM_P1;HPM_P2
2022/08/20 00:00:24;;;;;;;18.13;12.95;;;;;;;18.95;100.00;101494.69;5098637;28;20027;-59
2022/08/20 00:02:54;;;;;;;18.20;13.40;;;;;;;18.92;100.00;101490.53;5101487;28;20586;-61
2022/08/20 00:05:32;;;;;;;19.52;13.02;;;;;;;18.99;100.00;101484.34;5103066;28;20677;-59
2022/08/20 00:07:57;;;;;;;18.45;12.85;;;;;;;19.02;100.00;101483.94;5099090;28;20035;-61
2022/08/20 00:10:24;;;;;;;18.55;13.15;;;;;;;19.03;100.00;101491.00;5102263;28;20043;-57
2022/08/20 00:12:50;;;;;;;18.33;13.30;;;;;;;19.03;100.00;101480.25;5102502;28;20035;-59
2022/08/20 00:15:20;;;;;;;16.85;12.40;;;;;;;19.05;100.00;101478.19;5095473;28;20048;-58
2022/08/20 00:17:50;;;;;;;16.88;13.07;;;;;;;19.06;100.00;101471.78;5097708;28;20036;-60
2022/08/20 00:20:17;;;;;;;18.02;12.55;;;;;;;19.07;100.00;101476.13;5099144;28;20036;-61
2022/08/20 00:22:42;;;;;;;19.88;13.88;;;;;;;19.00;100.00;101476.06;5101233;28;20039;-58
2022/08/20 00:25:09;;;;;;;19.20;13.40;;;;;;;19.02;100.00;101475.88;5104281;28;20024;-58
2022/08/20 00:27:34;;;;;;;18.40;13.18;;;;;;;18.95;100.00;101474.00;5103110;28;20506;-58
2022/08/20 00:30:00;;;;;;;18.67;13.15;;;;;;;18.97;100.00;101465.75;5102165;28;20032;-57
2022/08/20 00:32:26;;;;;;;16.10;12.40;;;;;;;18.99;100.00;101469.03;5084002;28;20410;-57
2022/08/20 00:34:51;;;;;;;18.17;12.85;;;;;;;18.99;100.00;101474.41;5098558;28;20042;-58
2022/08/20 00:37:16;;;;;;;17.92;12.50;;;;;;;18.99;100.00;101478.97;5101681;28;20027;-58
2022/08/20 00:39:42;;;;;;;17.05;12.52;;;;;;;19.01;100.00;101471.53;5104102;28;20938;-61
2022/08/20 00:42:07;;;;;;;19.17;12.73;;;;;;;18.93;100.00;101480.59;5106692;28;20524;-59
2022/08/20 00:44:33;;;;;;;15.45;11.57;;;;;;;18.95;100.00;101479.38;5103520;28;20042;-60
2022/08/20 00:46:59;;;;;;;20.08;12.23;;;;;;;18.99;100.00;101477.09;5098333;28;20534;-58
2022/08/20 00:49:30;;;;;;;17.42;11.75;;;;;;;19.00;100.00;101475.25;5102664;28;20388;-59
2022/08/20 00:52:11;;;;;;;16.90;11.88;;;;;;;19.02;100.00;101478.56;5107091;28;20032;-58
2022/08/20 00:54:42;;;;;;;17.10;12.43;;;;;;;18.99;100.00;101478.97;5105519;28;20046;-61
2022/08/20 00:57:12;;;;;;;16.35;11.52;;;;;;;18.99;100.00;101476.28;5105090;28;20027;-58
2022/08/20 00:59:40;;;;;;;15.50;11.55;;;;;;;19.00;100.00;101480.63;5097003;28;20590;-59
2022/08/20 01:02:13;;;;;;;15.82;11.60;;;;;;;18.92;100.00;101479.78;5103121;28;20023;-58
2022/08/20 01:04:42;;;;;;;15.85;11.63;;;;;;;18.90;100.00;101475.66;5103138;28;20027;-61
2022/08/20 01:07:08;;;;;;;15.52;11.45;;;;;;;18.90;100.00;101476.47;5106820;28;20468;-61
2022/08/20 01:09:35;;;;;;;15.80;11.27;;;;;;;18.85;100.00;101478.91;5106749;28;20023;-57
2022/08/20 01:12:01;;;;;;;18.05;12.15;;;;;;;18.82;100.00;101485.56;5106467;28;20050;-60
2022/08/20 01:17:02;;;;;;;16.15;11.80;;;;;;;18.76;100.00;101480.13;5106363;28;20039;-56
2022/08/20 01:19:33;;;;;;;20.02;12.88;;;;;;;18.77;100.00;101473.72;5096186;28;20059;-60
2022/08/20 01:23:25;;;;;;;17.83;13.27;;;;;;;18.74;100.00;101476.84;5100507;28;20031;-58
2022/08/20 01:24:50;;;;;;;20.48;13.35;;;;;;;18.68;100.00;101473.06;5104041;28;20519;-57
2022/08/20 01:27:16;;;;;;;20.98;13.25;;;;;;;18.72;100.00;101474.34;5104017;28;20036;-59
2022/08/20 01:29:41;;;;;;;19.45;13.60;;;;;;;18.71;100.00;101482.59;5102069;28;20026;-59
2022/08/20 01:32:07;;;;;;;20.98;14.05;;;;;;;18.72;100.00;101484.25;5094153;28;20494;-58
2022/08/20 01:34:32;;;;;;;21.80;14.48;;;;;;;18.72;100.00;101476.19;5100514;28;20020;-60
2022/08/20 01:36:57;;;;;;;22.33;15.23;;;;;;;18.68;100.00;101481.97;5101529;28;20069;-59
2022/08/20 01:39:29;;;;;;;21.73;14.07;;;;;;;18.66;100.00;101469.78;5105280;28;20050;-61
2022/08/20 01:42:22;;;;;;;20.67;14.57;;;;;;;18.71;100.00;101480.75;5097291;28;20043;-59
2022/08/20 01:44:48;;;;;;;20.85;14.75;;;;;;;18.66;100.00;101475.94;5101909;28;20042;-58
2022/08/20 01:47:31;;;;;;;20.60;15.00;;;;;;;18.67;100.00;101472.25;5107143;28;20067;-58
2022/08/20 01:49:59;;;;;;;20.38;14.63;;;;;;;18.62;100.00;101473.88;5100135;28;20059;-58
2022/08/20 01:52:37;;;;;;;24.15;15.30;;;;;;;18.64;100.00;101477.19;5103051;28;20047;-59
2022/08/20 01:55:04;;;;;;;23.52;14.80;;;;;;;18.61;100.00;101475.75;5104906;28;20048;-58
2022/08/20 01:57:30;;;;;;;21.38;15.07;;;;;;;18.55;100.00;101479.19;5104545;28;20040;-58
2022/08/20 01:59:55;;;;;;;22.45;14.98;;;;;;;18.56;100.00;101480.88;5105270;28;20034;-58
2022/08/20 02:02:23;;;;;;;22.10;14.85;;;;;;;18.52;100.00;101476.94;5101078;28;20028;-59
2022/08/20 02:04:48;;;;;;;20.92;14.80;;;;;;;18.53;100.00;101489.31;5098524;28;20038;-61
2022/08/20 02:07:18;;;;;;;22.55;15.48;;;;;;;18.48;100.00;101481.88;5102932;28;20028;-60
2022/08/20 02:09:44;;;;;;;24.90;15.98;;;;;;;18.47;100.00;101484.75;5104735;28;20031;-58
2022/08/20 02:12:10;;;;;;;22.30;15.48;;;;;;;18.47;100.00;101474.00;5097382;28;20077;-57
2022/08/20 02:14:44;;;;;;;26.85;16.33;;;;;;;18.42;100.00;101486.16;5096069;28;20035;-59
2022/08/20 02:17:11;;;;;;;23.20;15.65;;;;;;;18.41;100.00;101484.50;5103531;28;20112;-59
2022/08/20 02:19:42;;;;;;;26.40;16.88;;;;;;;18.40;100.00;101485.53;5098501;28;20456;-58
2022/08/20 02:22:16;;;;;;;26.65;16.90;;;;;;;18.41;100.00;101487.19;5101802;28;20124;-60
2022/08/20 02:24:42;;;;;;;24.95;17.67;;;;;;;18.41;100.00;101481.81;5102113;28;20283;-60
2022/08/20 02:27:08;;;;;;;26.42;16.70;;;;;;;18.46;100.00;101483.09;5101492;28;20050;-58
2022/08/20 02:29:33;;;;;;;26.30;17.33;;;;;;;18.47;100.00;101492.81;5106156;28;20105;-59
2022/08/20 02:31:59;;;;;;;25.25;17.25;;;;;;;18.47;100.00;101484.75;5105298;28;20058;-59
2022/08/20 02:34:24;;;;;;;29.15;18.30;;;;;;;18.40;100.00;101493.59;5098783;28;20036;-58
2022/08/20 02:36:50;;;;;;;29.83;17.27;;;;;;;18.48;100.00;101479.19;5102607;28;20122;-60
2022/08/20 02:39:15;;;;;;;22.88;16.35;;;;;;;18.41;100.00;101484.50;5104058;28;20036;-57
2022/08/20 02:41:40;;;;;;;27.05;16.20;;;;;;;18.41;100.00;101484.50;5105202;28;20038;-57
2022/08/20 02:44:06;;;;;;;27.30;17.08;;;;;;;18.38;100.00;101484.94;5102253;28;20039;-57
2022/08/20 02:46:32;;;;;;;25.50;16.55;;;;;;;18.27;100.00;101493.53;5101867;28;20143;-57
2022/08/20 02:48:58;;;;;;;27.45;16.88;;;;;;;18.30;100.00;101498.50;5094774;28;20090;-57
2022/08/20 02:51:24;;;;;;;27.55;16.65;;;;;;;18.33;100.00;101502.63;5101196;28;20684;-57
2022/08/20 02:53:49;;;;;;;26.33;16.38;;;;;;;18.29;100.00;101491.47;5105166;28;20039;-58
2022/08/20 02:56:15;;;;;;;23.55;16.63;;;;;;;18.26;100.00;101491.88;5104205;28;20649;-60
2022/08/20 02:58:41;;;;;;;26.33;16.85;;;;;;;18.27;100.00;101493.53;5103805;28;20054;-57
2022/08/20 03:01:11;;;;;;;26.40;16.83;;;;;;;18.26;100.00;101497.25;5099253;28;20032;-57
2022/08/20 03:03:37;;;;;;;24.92;17.02;;;;;;;18.30;100.00;101495.81;5094511;28;20081;-58
2022/08/20 03:06:05;;;;;;;25.95;17.40;;;;;;;18.23;100.00;101487.72;5102714;28;20114;-59
2022/08/20 03:08:30;;;;;;;30.17;17.58;;;;;;;18.26;100.00;101491.88;5104069;28;20053;-60
2022/08/20 03:10:56;;;;;;;28.55;18.38;;;;;;;18.26;100.00;101491.88;5103630;28;20503;-57
2022/08/20 03:13:23;;;;;;;31.27;18.90;;;;;;;18.23;100.00;101497.63;5103078;28;20225;-61
2022/08/20 03:15:59;;;;;;;31.60;20.30;;;;;;;18.24;100.00;101493.91;5104631;28;20502;-61
2022/08/20 03:18:29;;;;;;;32.17;21.33;;;;;;;18.21;100.00;101497.00;5099192;28;20532;-57
2022/08/20 03:20:55;;;;;;;31.48;21.40;;;;;;;18.23;100.00;101494.94;5104012;28;20024;-59
2022/08/20 03:23:20;;;;;;;34.25;23.50;;;;;;;18.21;100.00;101497.00;5096107;28;20629;-58
2022/08/20 03:25:46;;;;;;;33.45;23.20;;;;;;;18.17;100.00;101493.03;5102296;28;20384;-60
2022/08/20 03:28:13;;;;;;;35.70;24.02;;;;;;;18.13;100.00;101498.81;5094160;28;20042;-58
2022/08/20 03:30:39;;;;;;;34.42;23.25;;;;;;;18.12;100.00;101497.13;5099667;28;20028;-59
2022/08/20 03:33:04;;;;;;;33.95;24.75;;;;;;;18.09;100.00;101502.91;5104326;28;20045;-57
2022/08/20 03:35:31;;;;;;;35.45;23.05;;;;;;;18.09;100.00;101496.69;5098975;28;20034;-58
2022/08/20 03:37:57;;;;;;;34.90;23.75;;;;;;;18.07;100.00;101504.97;5096296;28;20031;-58
2022/08/20 03:40:28;;;;;;;34.55;22.73;;;;;;;18.01;100.00;101500.34;5099873;28;20431;-60
2022/08/20 03:42:53;;;;;;;33.97;21.92;;;;;;;18.04;100.00;101504.47;5097108;28;20054;-58
2022/08/20 03:45:20;;;;;;;32.10;20.30;;;;;;;18.01;100.00;101509.22;5103863;28;20024;-60
2022/08/20 03:47:47;;;;;;;32.63;20.58;;;;;;;18.00;100.00;101509.41;5102634;28;20067;-60
2022/08/20 03:50:12;;;;;;;30.50;20.15;;;;;;;17.96;100.00;101508.16;5089855;28;20252;-59
2022/08/20 03:52:38;;;;;;;32.63;20.73;;;;;;;17.98;100.00;101516.81;5102332;28;20535;-61
2022/08/20 03:55:07;;;;;;;32.05;20.40;;;;;;;17.92;100.00;101506.88;5103531;28;20425;-58
2022/08/20 03:57:34;;;;;;;29.02;20.52;;;;;;;17.88;100.00;101507.25;5098370;28;20063;-59
2022/08/20 04:00:00;;;;;;;31.92;19.45;;;;;;;17.90;100.00;101514.28;5095868;28;20943;-57
2022/08/20 04:02:26;;;;;;;28.75;18.75;;;;;;;17.86;100.00;101509.31;5097446;28;20028;-58
2022/08/20 04:04:53;;;;;;;31.70;19.25;;;;;;;17.84;100.00;101516.72;5100026;28;20085;-60
2022/08/20 04:07:24;;;;;;;29.75;18.50;;;;;;;17.79;100.00;101512.94;5098954;28;20070;-58
2022/08/20 04:09:53;;;;;;;28.60;17.90;;;;;;;17.83;100.00;101509.69;5100146;28;20123;-60
2022/08/20 04:12:19;;;;;;;30.52;18.20;;;;;;;17.84;100.00;101522.09;5099483;28;20032;-59
2022/08/20 04:14:44;;;;;;;28.17;17.70;;;;;;;17.84;100.00;101526.59;5096778;28;20138;-58
2022/08/20 04:17:11;;;;;;;31.10;18.10;;;;;;;17.80;100.00;101520.81;5100309;28;20456;-60
2022/08/20 04:19:37;;;;;;;30.33;18.25;;;;;;;17.79;100.00;101529.03;5108334;28;20027;-58
2022/08/20 04:22:03;;;;;;;30.92;18.88;;;;;;;17.78;100.00;101522.03;5107715;28;20057;-59
2022/08/20 04:24:29;;;;;;;30.65;18.40;;;;;;;17.77;100.00;101531.94;5103030;28;20032;-59
2022/08/20 04:26:55;;;;;;;29.88;18.80;;;;;;;17.73;100.00;101530.66;5100640;28;20036;-61
2022/08/20 04:29:21;;;;;;;28.70;18.90;;;;;;;17.70;100.00;101531.03;5098781;28;20479;-58
2022/08/20 04:31:47;;;;;;;32.30;20.70;;;;;;;17.67;100.00;101536.78;5105298;28;20111;-61
2022/08/20 04:34:13;;;;;;;37.75;21.60;;;;;;;17.64;100.00;101537.16;5106033;28;20552;-58
2022/08/20 04:36:39;;;;;;;36.05;21.60;;;;;;;17.65;100.00;101538.84;5105939;28;20031;-59
2022/08/20 04:39:04;;;;;;;32.72;21.98;;;;;;;17.65;100.00;101536.97;5106685;28;20114;-60
2022/08/20 04:41:30;;;;;;;32.53;22.58;;;;;;;17.66;100.00;101543.19;5099758;28;20108;-61
2022/08/20 04:43:55;;;;;;;35.47;23.83;;;;;;;17.66;100.00;101545.84;5107010;28;20381;-59
2022/08/20 04:46:24;;;;;;;35.60;23.77;;;;;;;17.58;100.00;101538.75;5102339;28;20628;-59
2022/08/20 04:48:49;;;;;;;39.35;24.80;;;;;;;17.61;100.00;101547.25;5106373;28;20043;-60
2022/08/20 04:51:15;;;;;;;35.42;24.58;;;;;;;17.64;100.00;101546.03;5105154;28;20035;-57
2022/08/20 04:53:41;;;;;;;35.85;25.40;;;;;;;17.58;100.00;101557.53;5105015;28;20036;-58
2022/08/20 04:56:08;;;;;;;38.25;25.58;;;;;;;17.57;100.00;101559.38;5105054;28;20492;-61
2022/08/20 04:58:36;;;;;;;39.33;26.63;;;;;;;17.58;100.00;101563.72;5102988;28;20129;-58
2022/08/20 05:01:06;;;;;;;37.88;26.67;;;;;;;17.56;100.00;101563.06;5098600;28;20023;-59
2022/08/20 05:03:32;;;;;;;38.08;26.48;;;;;;;17.56;100.00;101563.06;5098089;28;20173;-59
2022/08/20 05:05:58;;;;;;;39.47;26.48;;;;;;;17.58;100.00;101568.25;5100628;28;20032;-59
2022/08/20 05:08:24;;;;;;;36.70;26.88;;;;;;;17.58;100.00;101571.75;5097958;28;20566;-59
2022/08/20 05:10:52;;;;;;;41.50;28.38;;;;;;;17.53;100.00;101574.19;5099140;28;20081;-62
2022/08/20 05:13:17;;;;;;;34.95;26.10;;;;;;;17.54;100.00;101573.19;5106261;28;20048;-63
2022/08/20 05:15:44;;;;;;;39.25;27.15;;;;;;;17.51;100.00;101570.84;5102413;28;20126;-60
2022/08/20 05:18:10;;;;;;;38.67;27.13;;;;;;;17.52;100.00;101569.84;5095084;28;20514;-61
2022/08/20 05:20:39;;;;;;;37.15;25.25;;;;;;;17.50;100.00;101573.75;5100899;28;20039;-58
2022/08/20 05:23:07;;;;;;;38.88;26.60;;;;;;;17.47;100.00;101574.97;5105512;28;20396;-59
2022/08/20 05:25:32;;;;;;;38.90;26.48;;;;;;;17.47;100.00;101566.91;5099226;27;20130;-61
2022/08/20 05:28:11;;;;;;;40.72;26.35;;;;;;;17.51;100.00;101576.22;5096310;28;20123;-58
2022/08/20 05:30:39;;;;;;;41.03;26.40;;;;;;;17.47;100.00;101569.59;5096742;28;20050;-58
2022/08/20 05:33:05;;;;;;;39.10;25.25;;;;;;;17.58;100.00;101582.47;5100976;28;20111;-58
2022/08/20 05:35:34;;;;;;;35.03;23.70;;;;;;;17.57;100.00;101580.81;5095075;28;20042;-61
2022/08/20 05:38:00;;;;;;;34.50;22.38;;;;;;;17.54;100.00;101585.75;5104744;28;20110;-61
2022/08/20 05:40:26;;;;;;;37.10;22.23;;;;;;;17.51;100.00;101586.94;5105443;28;20847;-58
2022/08/20 05:42:53;;;;;;;34.83;22.70;;;;;;;17.45;100.00;101593.06;5102218;28;20042;-59
2022/08/20 05:45:20;;;;;;;41.17;24.05;;;;;;;17.46;100.00;101584.84;5100115;28;20069;-61
2022/08/20 05:47:47;;;;;;;40.55;24.73;;;;;;;17.50;100.00;101589.84;5103633;28;20623;-59
2022/08/20 05:50:13;;;;;;;41.97;26.45;;;;;;;17.51;100.00;101595.00;5101672;28;20388;-59
2022/08/20 05:52:40;;;;;;;43.42;26.45;;;;;;;17.51;100.00;101602.22;5106929;28;20048;-59
2022/08/20 05:55:09;;;;;;;42.58;26.90;;;;;;;17.43;100.00;101595.13;5103350;28;20032;-58
2022/08/20 05:57:35;;;;;;;43.10;27.35;;;;;;;17.47;100.00;101594.53;5101225;28;20035;-61
2022/08/20 06:00:03;;;;;;;40.85;26.23;;;;;;;17.43;100.00;101595.13;5094141;28;20128;-57
2022/08/20 06:05:12;;;;;;;41.30;26.58;;;;;;;17.45;100.00;101596.59;5097143;28;20051;-58
2022/08/20 06:07:38;;;;;;;43.75;27.42;;;;;;;17.48;100.00;101606.91;5083183;28;20024;-58
2022/08/20 06:10:05;;;;;;;43.10;27.63;;;;;;;17.52;100.00;101609.25;5105762;28;20038;-58
2022/08/20 06:12:31;;;;;;;53.33;27.95;;;;;;;17.51;100.00;101612.94;5098729;28;20077;-58
2022/08/20 06:14:57;;;;;;;42.13;27.13;;;;;;;17.49;100.00;101605.09;5104217;28;20626;-57
2022/08/20 06:17:22;;;;;;;48.67;28.38;;;;;;;17.48;100.00;101598.06;5099940;28;20043;-59
2022/08/20 06:19:47;;;;;;;44.25;27.40;;;;;;;17.47;100.00;101601.78;5100033;28;20035;-58
2022/08/20 06:22:14;;;;;;;44.65;27.60;;;;;;;17.50;100.00;101606.75;5102257;28;20519;-59
2022/08/20 06:24:39;;;;;;;43.97;28.52;;;;;;;17.56;100.00;101603.31;5102112;28;20086;-57
2022/08/20 06:27:05;;;;;;;47.85;30.02;;;;;;;17.57;100.00;101601.47;5105387;28;20051;-60
2022/08/20 06:29:34;;;;;;;44.65;29.70;;;;;;;17.59;100.00;101605.63;5104046;28;20031;-58
2022/08/20 06:32:00;;;;;;;47.45;30.38;;;;;;;17.59;100.00;101602.94;5083108;28;20404;-61
2022/08/20 06:34:27;;;;;;;48.35;29.83;;;;;;;17.66;100.00;101604.88;5104685;28;20034;-58
2022/08/20 06:36:53;;;;;;;54.38;30.85;;;;;;;17.61;100.00;101603.56;5101702;28;20471;-60
2022/08/20 06:39:18;;;;;;;46.83;29.90;;;;;;;17.63;100.00;101595.34;5097134;28;20028;-58
2022/08/20 06:41:43;;;;;;;46.47;31.02;;;;;;;17.60;100.00;101604.59;5100612;28;20023;-57
2022/08/20 06:44:09;;;;;;;48.47;31.23;;;;;;;17.63;100.00;101605.22;5100296;28;20500;-60
2022/08/20 06:46:36;;;;;;;49.05;30.08;;;;;;;17.66;100.00;101610.22;5099708;28;20040;-58
2022/08/20 06:49:06;;;;;;;48.15;30.75;;;;;;;17.71;100.00;101615.84;5103900;28;20043;-58
2022/08/20 06:51:32;;;;;;;42.78;30.65;;;;;;;17.72;100.00;101618.31;5098443;28;20031;-58
2022/08/20 06:53:58;;;;;;;47.13;30.58;;;;;;;17.70;100.00;101612.31;5102647;28;20531;-60
2022/08/20 06:56:24;;;;;;;47.38;31.77;;;;;;;17.72;100.00;101612.97;5104128;28;20035;-58
2022/08/20 06:58:49;;;;;;;45.30;30.98;;;;;;;17.74;100.00;101613.63;5093398;28;20032;-61
2022/08/20 07:01:19;;;;;;;45.53;31.55;;;;;;;17.79;100.00;101605.00;5101175;28;20023;-58
2022/08/20 07:03:44;;;;;;;48.05;32.28;;;;;;;17.82;100.00;101609.97;5092724;28;20035;-58
2022/08/20 07:06:10;;;;;;;53.80;31.15;;;;;;;17.86;100.00;101611.25;5097448;28;20042;-58
2022/08/20 07:08:35;;;;;;;48.03;30.60;;;;;;;17.91;100.00;101615.22;5096555;28;20034;-57
2022/08/20 07:11:01;;;;;;;40.00;29.67;;;;;;;17.89;100.00;101610.03;5093142;28;20031;-57
2022/08/20 07:13:27;;;;;;;47.08;32.88;;;;;;;17.93;100.00;101613.16;5100805;28;20039;-58
2022/08/20 07:15:54;;;;;;;48.75;32.53;;;;;;;18.01;100.00;101621.09;5102187;28;20074;-58
2022/08/20 07:18:21;;;;;;;46.20;31.42;;;;;;;18.03;100.00;101621.72;5098959;28;20023;-58
2022/08/20 07:20:46;;;;;;;43.97;31.50;;;;;;;18.07;100.00;101616.84;5100907;28;20032;-61
2022/08/20 07:23:11;;;;;;;46.55;33.83;;;;;;;18.13;100.00;101624.97;5097231;28;20484;-59
2022/08/20 07:25:40;;;;;;;42.80;30.88;;;;;;;18.10;100.00;101627.16;5091903;28;20032;-61
2022/08/20 07:28:12;;;;;;;42.25;31.50;;;;;;;18.12;100.00;101630.50;5100863;28;20461;-58
2022/08/20 07:33:21;;;;;;;44.70;33.15;;;;;;;18.09;100.00;101637.09;5098992;28;20886;-59
2022/08/20 07:35:47;;;;;;;43.42;31.55;;;;;;;18.07;100.00;101636.47;5101441;28;20032;-59
2022/08/20 07:38:23;;;;;;;44.38;32.85;;;;;;;18.09;100.00;101637.09;5104143;28;20035;-61
2022/08/20 07:40:52;;;;;;;42.47;31.48;;;;;;;18.12;100.00;101642.06;5104590;28;20031;-58
2022/08/20 07:43:18;;;;;;;40.92;30.55;;;;;;;18.04;100.00;101642.16;5104279;28;20035;-58
2022/08/20 07:45:43;;;;;;;43.53;31.77;;;;;;;18.08;100.00;101648.84;5097956;28;20874;-58
2022/08/20 07:48:11;;;;;;;44.20;32.08;;;;;;;18.10;100.00;101649.50;5098851;28;20522;-60
2022/08/20 07:50:37;;;;;;;45.58;31.90;;;;;;;18.19;100.00;101646.66;5090439;28;20496;-61
2022/08/20 07:53:03;;;;;;;47.85;31.75;;;;;;;18.31;100.00;101650.50;5101193;28;20042;-58
2022/08/20 07:55:29;;;;;;;46.30;30.80;;;;;;;18.36;100.00;101653.41;5096471;28;21081;-58
2022/08/20 07:57:57;;;;;;;43.25;29.67;;;;;;;18.39;100.00;101658.41;5103511;28;20027;-61
2022/08/20 08:00:23;;;;;;;41.80;30.77;;;;;;;18.53;100.00;101669.25;5104372;28;20156;-58
2022/08/20 08:02:48;;;;;;;40.33;29.98;;;;;;;18.76;100.00;101665.50;5099611;28;20031;-58
2022/08/20 08:05:15;;;;;;;38.95;27.63;;;;;;;18.87;99.37;101673.03;5101598;28;20039;-59
2022/08/20 08:07:40;;;;;;;36.33;23.73;;;;;;;18.84;96.12;101670.72;5092992;28;20054;-61
2022/08/20 08:10:09;;;;;;;32.50;25.33;;;;;;;18.92;97.86;101673.28;5096120;28;20031;-58
2022/08/20 08:12:39;;;;;;;35.55;25.45;;;;;;;19.09;97.64;101675.66;5102182;28;20032;-59
2022/08/20 08:15:08;;;;;;;29.08;22.40;;;;;;;19.02;94.49;101672.91;5095441;28;20032;-57
2022/08/20 08:17:35;;;;;;;26.80;20.30;;;;;;;18.93;92.54;101682.16;5095360;28;20049;-58
2022/08/20 08:20:02;;;;;;;27.48;19.75;;;;;;;18.82;90.89;101673.63;5098542;28;20136;-58
2022/08/20 08:22:30;;;;;;;27.30;20.33;;;;;;;18.91;92.20;101676.97;5095439;28;20031;-59
2022/08/20 08:24:58;;;;;;;27.20;18.33;;;;;;;19.02;90.06;101680.13;5097328;28;20062;-58
2022/08/20 08:27:24;;;;;;;28.00;17.48;;;;;;;19.13;88.82;101685.00;5099375;28;20111;-58
2022/08/20 08:29:49;;;;;;;22.88;16.73;;;;;;;19.30;89.13;101681.97;5100854;28;20069;-58
2022/08/20 08:32:14;;;;;;;25.77;17.13;;;;;;;19.43;88.31;101678.50;5098697;28;20114;-61
2022/08/20 08:34:40;;;;;;;24.73;16.58;;;;;;;19.45;86.98;101677.28;5096838;28;20086;-60
2022/08/20 08:37:05;;;;;;;27.70;17.08;;;;;;;19.58;90.67;101681.06;5094568;28;20035;-59
2022/08/20 08:39:32;;;;;;;22.35;15.13;;;;;;;19.48;87.79;101684.97;5091988;28;20115;-59
2022/08/20 08:41:59;;;;;;;23.08;15.20;;;;;;;19.47;88.68;101691.38;5100798;28;20732;-58
2022/08/20 08:44:28;;;;;;;20.23;13.63;;;;;;;19.47;87.64;101685.16;5093741;28;20024;-58
2022/08/20 08:46:57;;;;;;;23.60;14.85;;;;;;;19.58;86.25;101697.19;5099613;28;20555;-61
2022/08/20 08:49:27;;;;;;;24.38;16.00;;;;;;;19.58;86.13;101689.97;5095856;28;20043;-58
2022/08/20 08:51:57;;;;;;;21.73;12.13;;;;;;;19.64;83.77;101696.41;5100948;28;20114;-60
2022/08/20 08:54:27;;;;;;;20.10;11.60;;;;;;;19.80;84.62;101705.16;5103383;28;20493;-58
2022/08/20 08:56:53;;;;;;;19.98;10.32;;;;;;;19.83;81.02;101704.75;5090159;28;21075;-59
2022/08/20 08:59:20;;;;;;;19.17;10.35;;;;;;;19.84;78.75;101703.72;5095999;28;20034;-58
2022/08/20 09:01:51;;;;;;;18.38;11.05;;;;;;;19.89;80.84;101706.63;5104805;28;20111;-58
2022/08/20 09:04:18;;;;;;;18.48;10.00;;;;;;;19.95;77.48;101696.91;5100102;28;20464;-58
2022/08/20 09:06:43;;;;;;;19.23;12.10;;;;;;;20.05;78.73;101702.75;5106899;28;20059;-59
2022/08/20 09:09:28;;;;;;;20.15;10.50;;;;;;;20.11;80.94;101711.88;5094999;28;20574;-61
2022/08/20 09:11:55;;;;;;;20.20;9.63;;;;;;;19.90;76.01;101710.97;5104348;27;20023;-58
2022/08/20 09:14:23;;;;;;;16.27;9.27;;;;;;;19.73;77.59;101705.94;5099342;28;20549;-60
2022/08/20 09:16:49;;;;;;;16.55;8.80;;;;;;;19.80;76.38;101707.84;5104563;28;20031;-59
2022/08/20 09:19:14;;;;;;;22.02;9.77;;;;;;;19.81;75.35;101696.88;5102997;28;20043;-61
2022/08/20 09:21:40;;;;;;;14.98;9.50;;;;;;;20.00;75.17;101700.69;5097953;28;20024;-60
2022/08/20 09:24:05;;;;;;;15.50;9.43;;;;;;;20.10;78.02;101702.97;5106502;28;20472;-59
2022/08/20 09:26:30;;;;;;;17.48;9.82;;;;;;;20.12;74.71;101710.84;5100028;28;20114;-60
2022/08/20 09:28:56;;;;;;;20.17;9.60;;;;;;;19.99;73.77;101704.38;5106025;28;20032;-58
2022/08/20 09:31:23;;;;;;;14.82;9.90;;;;;;;20.01;73.82;101705.03;5104906;28;20057;-58
2022/08/20 09:33:48;;;;;;;18.63;10.10;;;;;;;20.19;75.66;101698.25;5101173;28;20039;-58
2022/08/20 09:36:14;;;;;;;19.20;9.75;;;;;;;20.33;76.11;101704.44;5102069;28;20047;-60
2022/08/20 09:38:39;;;;;;;16.38;8.13;;;;;;;20.38;71.93;101701.16;5105178;28;20441;-58
2022/08/20 09:41:04;;;;;;;16.52;8.60;;;;;;;20.46;71.58;101692.03;5099305;28;20047;-59
2022/08/20 09:43:30;;;;;;;14.88;9.50;;;;;;;20.57;74.06;101688.69;5099932;28;20024;-59
2022/08/20 09:45:55;;;;;;;15.05;10.10;;;;;;;20.74;77.57;101694.50;5099313;28;20484;-59
2022/08/20 09:48:20;;;;;;;15.43;8.40;;;;;;;20.66;72.53;101686.63;5096483;28;20028;-59
2022/08/20 09:50:48;;;;;;;15.18;8.77;;;;;;;20.63;71.25;101679.78;5098511;28;20034;-61
2022/08/20 09:53:14;;;;;;;15.90;8.35;;;;;;;20.74;70.19;101688.28;5099209;28;20393;-58
2022/08/20 09:55:43;;;;;;;15.98;8.23;;;;;;;20.84;70.50;101694.09;5098699;28;20576;-59
2022/08/20 09:58:19;;;;;;;12.48;7.18;;;;;;;20.91;70.89;101694.94;5099782;28;20032;-59
2022/08/20 10:00:44;;;;;;;19.55;9.82;;;;;;;21.06;73.73;101691.16;5099231;28;20023;-58
2022/08/20 10:03:10;;;;;;;17.02;7.82;;;;;;;20.94;68.66;101699.06;5095307;28;20042;-59
2022/08/20 10:05:35;;;;;;;11.07;6.05;;;;;;;20.98;67.46;101700.31;5098463;28;20083;-60
2022/08/20 10:08:04;;;;;;;13.32;5.75;;;;;;;20.90;65.74;101692.44;5105294;28;20023;-58
2022/08/20 10:10:29;;;;;;;12.40;5.97;;;;;;;20.97;66.08;101693.28;5106723;28;20034;-58
2022/08/20 10:12:55;;;;;;;14.65;6.85;;;;;;;21.14;66.32;101690.09;5104681;28;20430;-59
2022/08/20 10:15:20;;;;;;;14.07;6.88;;;;;;;21.26;67.51;101688.41;5095121;28;20024;-58
2022/08/20 10:17:45;;;;;;;16.05;8.10;;;;;;;21.36;64.10;101691.50;5093591;28;20039;-58
2022/08/20 10:20:13;;;;;;;14.27;7.18;;;;;;;21.33;63.51;101691.94;5096850;28;20035;-58
2022/08/20 10:22:38;;;;;;;15.23;6.95;;;;;;;21.41;64.03;101695.41;5103661;28;20031;-59
2022/08/20 10:25:05;;;;;;;12.25;6.03;;;;;;;21.54;63.00;101691.81;5100755;28;20038;-59
2022/08/20 10:27:30;;;;;;;12.85;5.28;;;;;;;21.71;62.44;101693.03;5097267;28;20761;-60
2022/08/20 10:29:55;;;;;;;12.60;6.05;;;;;;;21.84;62.46;101692.13;5102367;28;20034;-59
2022/08/20 10:32:21;;;;;;;15.02;6.50;;;;;;;22.02;62.90;101679.75;5102208;28;20597;-59
2022/08/20 10:34:46;;;;;;;13.40;5.70;;;;;;;22.04;58.95;101685.78;5098895;28;20075;-60
2022/08/20 10:37:18;;;;;;;14.70;5.57;;;;;;;22.12;62.82;101672.03;5101814;28;20377;-58
2022/08/20 10:39:44;;;;;;;14.30;6.50;;;;;;;22.19;63.02;101690.06;5102513;28;20047;-58
2022/08/20 10:42:10;;;;;;;16.13;7.10;;;;;;;21.99;61.65;101693.69;5105330;28;20027;-60
2022/08/20 10:44:35;;;;;;;15.88;7.15;;;;;;;21.82;61.89;101694.22;5099631;28;20449;-59
2022/08/20 10:47:21;;;;;;;16.80;7.38;;;;;;;21.74;64.58;101702.56;5105559;28;20126;-59
2022/08/20 10:49:49;;;;;;;11.77;5.80;;;;;;;21.59;63.44;101700.94;5089332;28;20057;-58
2022/08/20 10:52:14;;;;;;;12.00;5.10;;;;;;;21.48;62.15;101694.34;5099681;28;20719;-59
2022/08/20 10:54:42;;;;;;;11.32;4.50;;;;;;;21.72;61.43;101696.56;5096405;28;20035;-62
2022/08/20 10:57:33;;;;;;;12.52;4.70;;;;;;;21.83;63.25;101701.28;5098353;28;20032;-58
2022/08/20 11:00:00;;;;;;;10.88;4.43;;;;;;;21.78;60.75;101693.00;5099795;28;20416;-58
2022/08/20 11:02:26;;;;;;;13.35;4.55;;;;;;;21.92;60.97;101698.31;5105448;28;20058;-58
2022/08/20 11:04:53;;;;;;;11.25;4.50;;;;;;;22.15;62.55;101698.56;5102144;28;20038;-60
2022/08/20 11:07:27;;;;;;;15.80;4.63;;;;;;;21.99;60.35;101705.34;5088319;28;20031;-60
2022/08/20 11:09:53;;;;;;;14.23;4.53;;;;;;;21.92;60.34;101698.31;5090257;28;20683;-59
2022/08/20 11:12:20;;;;;;;11.88;4.28;;;;;;;21.94;60.25;101701.63;5104209;28;20070;-59